createdAt,value
2018-06-03T00:01:16.192Z,60.52
2018-06-03T00:03:47.280Z,60.81
2018-06-03T00:06:18.352Z,60.90
2018-06-03T00:08:49.431Z,61.00
2018-06-03T00:11:20.481Z,60.92
2018-06-03T00:13:51.531Z,60.99
2018-06-03T00:16:22.666Z,60.86
2018-06-03T00:18:53.722Z,61.02
2018-06-03T00:21:37.254Z,61.07
2018-06-03T00:24:08.255Z,61.41
2018-06-03T00:26:39.379Z,61.82
2018-06-03T00:29:10.426Z,62.03
2018-06-03T00:31:41.528Z,62.17
2018-06-03T00:34:12.529Z,62.38
2018-06-03T00:36:44.632Z,62.34
2018-06-03T00:39:15.670Z,62.21
2018-06-03T00:41:46.691Z,62.14
2018-06-03T00:44:17.760Z,62.21
2018-06-03T00:46:48.791Z,62.16
2018-06-03T00:49:19.840Z,62.04
2018-06-03T00:51:50.861Z,61.85
2018-06-03T00:54:21.940Z,61.77
2018-06-03T00:57:05.195Z,61.71
2018-06-03T00:59:36.292Z,61.65
2018-06-03T01:02:07.349Z,61.40
2018-06-03T01:04:38.471Z,61.28
2018-06-03T01:07:09.595Z,61.55
2018-06-03T01:09:40.683Z,62.16
2018-06-03T01:12:11.684Z,62.40
2018-06-03T01:14:42.895Z,62.37
2018-06-03T01:17:14.015Z,62.17
2018-06-03T01:19:45.166Z,61.79
2018-06-03T01:22:16.169Z,62.14
2018-06-03T01:24:47.203Z,62.57
2018-06-03T01:27:18.212Z,63.01
2018-06-03T01:29:49.347Z,63.23
2018-06-03T01:32:20.360Z,63.25
2018-06-03T01:34:51.376Z,62.90
2018-06-03T01:37:22.379Z,62.66
2018-06-03T01:39:53.488Z,62.29
2018-06-03T01:42:24.517Z,61.79
2018-06-03T01:44:55.581Z,60.81
2018-06-03T01:47:26.634Z,59.68
2018-06-03T01:49:57.676Z,59.47
2018-06-03T01:52:28.712Z,59.68
2018-06-03T01:54:59.764Z,60.23
2018-06-03T01:57:30.810Z,60.54
2018-06-03T02:00:01.866Z,61.14
2018-06-03T02:02:32.853Z,61.72
2018-06-03T02:05:03.982Z,61.93
2018-06-03T02:07:35.072Z,61.96
2018-06-03T02:10:06.151Z,61.47
2018-06-03T02:12:37.206Z,60.60
2018-06-03T02:15:08.238Z,59.85
2018-06-03T02:17:39.276Z,59.50
2018-06-03T02:20:10.339Z,59.29
2018-06-03T02:22:41.411Z,59.80
2018-06-03T02:25:12.423Z,60.49
2018-06-03T02:27:43.469Z,60.98
2018-06-03T02:30:14.441Z,60.86
2018-06-03T02:32:45.469Z,61.61
2018-06-03T02:35:16.506Z,62.14
2018-06-03T02:37:47.580Z,62.47
2018-06-03T02:40:18.639Z,62.19
2018-06-03T02:42:49.715Z,61.72
2018-06-03T02:45:20.816Z,61.98
2018-06-03T02:47:51.856Z,64.14
2018-06-03T02:50:22.965Z,65.52
2018-06-03T02:52:53.972Z,65.45
2018-06-03T02:55:25.086Z,64.84
2018-06-03T02:57:56.127Z,64.42
2018-06-03T03:00:27.206Z,64.29
2018-06-03T03:02:58.233Z,64.01
2018-06-03T03:05:29.294Z,63.90
2018-06-03T03:08:00.362Z,63.71
2018-06-03T03:10:31.413Z,64.17
2018-06-03T03:13:02.473Z,65.16
2018-06-03T03:15:33.524Z,65.19
2018-06-03T03:18:04.565Z,65.27
2018-06-03T03:20:35.691Z,65.19
2018-06-03T03:23:06.709Z,65.78
2018-06-03T03:25:37.787Z,66.31
2018-06-03T03:28:08.929Z,66.62
2018-06-03T03:30:40.009Z,66.39
2018-06-03T03:33:11.107Z,66.28
2018-06-03T03:35:42.110Z,65.88
2018-06-03T03:38:13.183Z,65.71
2018-06-03T03:40:44.310Z,65.54
2018-06-03T03:43:15.377Z,65.51
2018-06-03T03:45:46.420Z,65.08
2018-06-03T03:48:17.440Z,64.74
2018-06-03T03:50:48.463Z,64.49
2018-06-03T03:53:19.618Z,64.32
2018-06-03T03:55:50.741Z,63.83
2018-06-03T03:58:21.779Z,63.31
2018-06-03T04:00:52.849Z,62.76
2018-06-03T04:03:23.854Z,62.23
2018-06-03T04:05:54.888Z,61.53
2018-06-03T04:08:25.971Z,60.78
2018-06-03T04:10:57.149Z,60.12
2018-06-03T04:13:28.124Z,59.64
2018-06-03T04:15:59.230Z,59.74
2018-06-03T04:18:30.296Z,60.42
2018-06-03T04:21:01.276Z,60.24
2018-06-03T04:23:32.308Z,59.70
2018-06-03T04:26:03.359Z,58.92
2018-06-03T04:28:34.398Z,59.12
2018-06-03T04:31:05.432Z,58.84
2018-06-03T04:33:36.442Z,58.36
2018-06-03T04:36:07.505Z,57.83
2018-06-03T04:38:38.602Z,57.43
2018-06-03T04:41:09.665Z,57.10
2018-06-03T04:43:40.706Z,56.29
2018-06-03T04:46:11.771Z,55.47
2018-06-03T04:48:42.864Z,54.39
2018-06-03T04:51:13.841Z,53.33
2018-06-03T04:53:44.969Z,52.95
2018-06-03T04:56:16.048Z,52.53
2018-06-03T04:58:47.085Z,52.11
2018-06-03T05:01:18.121Z,51.14
2018-06-03T05:03:49.122Z,50.16
2018-06-03T05:06:20.159Z,48.83
2018-06-03T05:08:51.161Z,47.60
2018-06-03T05:11:22.232Z,46.28
2018-06-03T05:13:53.337Z,45.73
2018-06-03T05:16:24.370Z,44.53
2018-06-03T05:18:55.503Z,43.87
2018-06-03T05:21:26.552Z,43.66
2018-06-03T05:23:57.633Z,43.68
2018-06-03T05:26:28.664Z,43.54
2018-06-03T05:28:59.742Z,43.56
2018-06-03T05:31:30.823Z,43.12
2018-06-03T05:34:01.876Z,42.39
2018-06-03T05:36:32.986Z,42.23
2018-06-03T05:39:04.019Z,41.92
2018-06-03T05:41:35.056Z,41.54
2018-06-03T05:44:06.109Z,40.83
2018-06-03T05:46:37.132Z,37.30
2018-06-03T05:49:08.158Z,37.33
2018-06-03T05:51:39.179Z,36.91
2018-06-03T05:54:10.251Z,29.58
2018-06-03T05:56:41.306Z,27.84
2018-06-03T05:59:12.332Z,29.82
2018-06-03T06:01:43.379Z,30.69
2018-06-03T06:04:14.389Z,24.79
2018-06-03T06:06:45.477Z,19.57
2018-06-03T06:09:16.442Z,15.95
2018-06-03T06:11:47.509Z,13.07
2018-06-03T06:14:18.635Z,11.68
2018-06-03T06:16:49.732Z,10.60
2018-06-03T06:19:20.768Z,9.83
2018-06-03T06:21:51.783Z,8.96
2018-06-03T06:24:22.825Z,8.44
2018-06-03T06:26:53.885Z,8.35
2018-06-03T06:29:24.959Z,7.85
2018-06-03T06:31:55.960Z,7.68
2018-06-03T06:34:26.986Z,7.71
2018-06-03T06:36:58.091Z,7.36
2018-06-03T06:39:29.142Z,6.97
2018-06-03T06:42:00.160Z,6.46
2018-06-03T06:44:31.244Z,6.00
2018-06-03T06:47:02.317Z,5.55
2018-06-03T06:49:33.362Z,5.22
2018-06-03T06:52:04.517Z,5.30
2018-06-03T06:54:35.573Z,5.00
2018-06-03T06:57:06.612Z,4.79
2018-06-03T06:59:37.707Z,4.77
2018-06-03T07:02:08.784Z,4.54
2018-06-03T07:04:40.791Z,4.14
2018-06-03T07:07:12.579Z,3.81
2018-06-03T07:09:44.138Z,3.16
2018-06-03T07:12:15.594Z,3.11
2018-06-03T07:14:47.149Z,4.57
2018-06-03T07:17:18.705Z,7.10
2018-06-03T07:19:49.772Z,9.35
2018-06-03T07:22:20.836Z,11.44
2018-06-03T07:24:51.818Z,13.71
2018-06-03T07:27:22.914Z,15.90
2018-06-03T07:30:00.910Z,16.67
2018-06-03T07:32:31.947Z,12.14
2018-06-03T07:35:03.030Z,8.62
2018-06-03T07:37:34.025Z,6.39
2018-06-03T07:40:05.067Z,5.08
2018-06-03T07:42:36.110Z,4.20
2018-06-03T07:45:07.140Z,3.48
2018-06-03T07:47:38.245Z,2.90
2018-06-03T07:50:09.299Z,3.72
2018-06-03T07:52:40.373Z,5.30
2018-06-03T07:55:11.441Z,5.16
2018-06-03T07:57:42.552Z,4.21
2018-06-03T08:00:13.672Z,3.57
2018-06-03T08:02:44.719Z,3.35
2018-06-03T08:05:15.838Z,2.84
2018-06-03T08:07:46.888Z,2.66
2018-06-03T08:10:17.967Z,2.31
2018-06-03T08:12:48.992Z,2.25
2018-06-03T08:15:20.046Z,2.42
2018-06-03T08:17:51.190Z,2.29
2018-06-03T08:20:22.273Z,2.19
2018-06-03T08:22:53.395Z,2.13
2018-06-03T08:25:24.420Z,2.03
2018-06-03T08:27:55.560Z,1.89
2018-06-03T08:30:26.653Z,1.70
2018-06-03T08:32:57.693Z,1.34
2018-06-03T08:35:28.714Z,1.11
2018-06-03T08:37:59.760Z,1.06
2018-06-03T08:40:30.784Z,1.09
2018-06-03T08:43:01.825Z,0.98
2018-06-03T08:45:32.884Z,0.92
2018-06-03T08:48:03.927Z,0.74
2018-06-03T08:50:34.929Z,0.47
2018-06-03T08:53:05.894Z,0.95
2018-06-03T08:55:36.958Z,1.08
2018-06-03T08:58:07.974Z,1.25
2018-06-03T09:00:38.985Z,1.27
2018-06-03T09:03:10.001Z,1.15
2018-06-03T09:05:41.037Z,1.01
2018-06-03T09:08:12.023Z,0.94
